Time;durP1;ratioP1;P1;durP2;ratioP2;P2;SDS_P1;SDS_P2;PMS_P1;PMS_P2;Temp;Humidity;BMP_temperature;BMP_pressure;BME280_temperature;BME280_humidity;BME280_pressure;Samples;Min_cycle;Max_cycle;Signal;HPM_P1;HPM_P2
2022/11/24 00:01:03;;;;;;;9.23;3.28;;;;;;;16.98;49.83;101850.28;5022038;28;20038;-45
2022/11/24 00:03:29;;;;;;;6.50;3.33;;;;;;;16.75;50.14;101844.69;5063532;23;20528;-47
2022/11/24 00:05:56;;;;;;;8.38;3.17;;;;;;;16.47;50.23;101853.22;5073972;28;20029;-54
2022/11/24 00:08:22;;;;;;;6.50;3.28;;;;;;;16.41;50.11;101865.72;5057200;28;20038;-49
2022/11/24 00:10:48;;;;;;;7.97;3.60;;;;;;;16.45;50.02;101858.03;5071088;28;20028;-45
2022/11/24 00:13:14;;;;;;;6.53;3.50;;;;;;;16.41;50.14;101856.81;5052578;28;20017;-47
2022/11/24 00:15:40;;;;;;;7.82;3.40;;;;;;;16.31;50.17;101866.22;5053014;28;20047;-47
2022/11/24 00:18:06;;;;;;;7.20;3.03;;;;;;;16.18;50.50;101868.19;5051836;28;20025;-48
2022/11/24 00:20:33;;;;;;;5.43;3.15;;;;;;;15.84;51.37;101873.78;5068426;28;20028;-50
2022/11/24 00:23:00;;;;;;;8.07;3.45;;;;;;;15.99;51.02;101876.22;5052844;28;20059;-50
2022/11/24 00:25:26;;;;;;;5.20;2.63;;;;;;;15.79;50.69;101878.19;5053063;28;20430;-50
2022/11/24 00:27:52;;;;;;;7.72;3.65;;;;;;;15.78;50.59;101876.53;5053182;28;20021;-49
2022/11/24 00:30:18;;;;;;;5.95;2.85;;;;;;;15.88;50.42;101889.53;5051273;28;20401;-49
2022/11/24 00:32:45;;;;;;;9.57;3.80;;;;;;;15.66;50.92;101892.56;5052905;28;20025;-48
2022/11/24 00:35:11;;;;;;;4.47;3.17;;;;;;;15.66;50.71;101892.56;5052899;28;20025;-46
2022/11/24 00:37:37;;;;;;;5.45;3.33;;;;;;;15.67;50.39;101890.69;5052952;28;20040;-48
2022/11/24 00:40:04;;;;;;;8.82;3.20;;;;;;;15.55;50.80;101891.34;5053053;28;20060;-46
2022/11/24 00:42:30;;;;;;;6.45;3.05;;;;;;;15.54;51.02;101888.84;5052859;28;20028;-48
2022/11/24 00:44:56;;;;;;;6.95;3.10;;;;;;;15.49;51.49;101886.81;5067822;28;20042;-48
2022/11/24 00:47:22;;;;;;;8.65;3.13;;;;;;;15.62;51.67;101890.47;5066461;28;20031;-46
2022/11/24 00:49:48;;;;;;;10.00;3.97;;;;;;;15.52;52.35;101893.63;5054986;28;20023;-46
2022/11/24 00:52:15;;;;;;;7.28;3.45;;;;;;;15.06;53.64;101894.59;5072794;28;20032;-46
2022/11/24 00:54:41;;;;;;;6.28;3.15;;;;;;;15.09;54.49;101891.44;5072351;28;20086;-48
2022/11/24 00:57:08;;;;;;;7.68;3.20;;;;;;;15.07;55.41;101903.50;5060771;28;20032;-46
2022/11/24 00:59:34;;;;;;;8.52;3.22;;;;;;;15.04;56.17;101904.72;5072125;28;20086;-48
2022/11/24 01:02:00;;;;;;;6.18;2.70;;;;;;;15.07;56.55;101898.09;5071968;28;20396;-50
2022/11/24 01:04:26;;;;;;;8.40;3.20;;;;;;;14.98;57.71;101903.69;5066371;28;20041;-47
2022/11/24 01:06:52;;;;;;;8.93;3.08;;;;;;;14.92;57.77;101915.31;5051889;28;20040;-47
2022/11/24 01:09:18;;;;;;;6.13;3.65;;;;;;;14.73;58.35;101917.00;5058843;28;20047;-54
2022/11/24 01:12:00;;;;;;;6.88;3.40;;;;;;;14.87;58.00;101909.72;5068054;28;20013;-46
2022/11/24 01:14:27;;;;;;;7.10;3.65;;;;;;;14.57;58.75;101911.19;5060614;28;20124;-48
2022/11/24 01:16:54;;;;;;;10.45;3.60;;;;;;;14.44;59.49;101923.56;5069337;28;20032;-46
2022/11/24 01:19:20;;;;;;;6.43;3.65;;;;;;;14.57;59.64;101927.34;5071840;28;20024;-48
2022/11/24 01:21:47;;;;;;;9.32;3.55;;;;;;;14.18;62.54;101928.91;5062626;28;20032;-48
2022/11/24 01:24:13;;;;;;;6.22;2.78;;;;;;;14.11;64.16;101936.97;5051804;28;20378;-45
2022/11/24 01:26:40;;;;;;;5.78;2.60;;;;;;;14.03;66.37;101928.22;5051280;28;20025;-49
2022/11/24 01:29:06;;;;;;;5.93;2.42;;;;;;;13.89;67.23;101935.44;5064636;28;20526;-50
2022/11/24 01:31:33;;;;;;;3.88;2.20;;;;;;;13.89;67.68;101928.19;5071528;28;20025;-46
2022/11/24 01:33:59;;;;;;;4.20;2.53;;;;;;;13.91;68.04;101928.81;5071527;28;20099;-49
2022/11/24 01:36:25;;;;;;;6.93;2.50;;;;;;;13.82;68.82;101926.50;5069151;28;20033;-49
2022/11/24 01:38:51;;;;;;;6.22;3.05;;;;;;;13.80;68.72;101925.88;5052095;28;20021;-47
2022/11/24 01:41:20;;;;;;;9.60;2.92;;;;;;;13.71;69.62;101928.75;5052540;28;20036;-50
2022/11/24 01:43:47;;;;;;;5.40;3.05;;;;;;;13.60;70.20;101926.63;5051526;28;20688;-46
2022/11/24 01:46:18;;;;;;;6.40;2.90;;;;;;;13.46;71.15;101927.56;5055137;28;20028;-49
2022/11/24 01:49:03;;;;;;;5.38;2.63;;;;;;;13.65;70.68;101926.00;5060350;28;20079;-51
2022/11/24 01:51:33;;;;;;;6.57;2.97;;;;;;;13.52;71.25;101921.41;5070772;28;20047;-50
2022/11/24 01:54:08;;;;;;;5.00;3.10;;;;;;;13.48;71.34;101920.13;5071324;28;20023;-48
2022/11/24 01:56:38;;;;;;;8.05;3.17;;;;;;;13.37;71.72;101918.00;5055940;28;20028;-51
2022/11/24 01:59:09;;;;;;;6.68;3.00;;;;;;;13.39;71.30;101919.47;5066912;28;20489;-50
2022/11/24 02:01:36;;;;;;;6.75;2.90;;;;;;;13.37;71.13;101912.63;5061306;28;20039;-51
2022/11/24 02:04:07;;;;;;;8.35;2.92;;;;;;;13.27;70.99;101902.25;5054316;28;20112;-51
2022/11/24 02:06:36;;;;;;;9.52;3.63;;;;;;;13.18;71.33;101903.38;5054294;28;20115;-48
2022/11/24 02:09:15;;;;;;;8.48;4.10;;;;;;;13.13;71.27;101911.22;5063667;28;20091;-47
2022/11/24 02:11:42;;;;;;;7.55;4.07;;;;;;;13.02;71.15;101915.25;5066949;28;20031;-46
2022/11/24 02:14:11;;;;;;;9.38;4.38;;;;;;;12.99;71.04;101912.97;5067734;28;20021;-48
2022/11/24 02:16:40;;;;;;;8.88;4.35;;;;;;;12.98;70.94;101914.00;5070662;28;20078;-51
2022/11/24 02:19:31;;;;;;;8.30;3.67;;;;;;;12.89;70.77;101915.19;5071100;28;20054;-47
2022/11/24 02:21:58;;;;;;;9.30;3.70;;;;;;;12.87;70.95;101925.28;5070660;28;20020;-48
2022/11/24 02:24:27;;;;;;;7.40;4.20;;;;;;;12.99;70.86;101920.19;5070862;28;20027;-51
2022/11/24 02:26:54;;;;;;;6.63;3.88;;;;;;;12.88;71.14;101927.78;5061121;28;20029;-50
2022/11/24 02:29:20;;;;;;;8.18;3.90;;;;;;;12.87;71.39;101933.34;5062885;28;20025;-51
2022/11/24 02:31:55;;;;;;;8.68;3.83;;;;;;;12.88;71.83;101935.00;5071448;28;20047;-49
2022/11/24 02:34:21;;;;;;;8.18;3.80;;;;;;;12.66;72.23;101942.28;5072811;28;20031;-52
2022/11/24 02:36:47;;;;;;;7.70;3.95;;;;;;;12.61;73.17;101929.41;5074674;28;20404;-49
2022/11/24 02:39:14;;;;;;;8.57;3.85;;;;;;;12.70;72.68;101930.09;5074431;28;20025;-50
2022/11/24 02:41:53;;;;;;;7.60;4.18;;;;;;;12.57;72.94;101932.66;5074221;28;20028;-51
2022/11/24 02:44:23;;;;;;;5.45;3.58;;;;;;;12.63;72.72;101932.72;5074384;28;20021;-51
2022/11/24 02:47:01;;;;;;;7.22;4.32;;;;;;;12.58;72.30;101929.78;5072376;28;20093;-49
2022/11/24 02:49:27;;;;;;;6.72;3.25;;;;;;;12.51;73.07;101926.22;5054523;28;20477;-48
2022/11/24 02:51:53;;;;;;;5.53;3.58;;;;;;;12.52;73.07;101929.72;5053639;28;20146;-48
2022/11/24 02:54:19;;;;;;;10.30;4.30;;;;;;;12.38;73.25;101924.25;5080348;28;20044;-47
2022/11/24 02:56:46;;;;;;;5.72;3.85;;;;;;;12.44;73.45;101930.69;5091441;28;20016;-48
2022/11/24 02:59:12;;;;;;;8.05;3.90;;;;;;;12.28;73.89;101939.81;5074860;28;20028;-54
2022/11/24 03:01:38;;;;;;;7.05;3.40;;;;;;;12.41;74.04;101950.69;5056688;28;20024;-58
2022/11/24 03:04:04;;;;;;;6.22;3.33;;;;;;;12.32;73.78;101951.00;5056430;28;20056;-49
2022/11/24 03:06:30;;;;;;;7.20;3.63;;;;;;;12.22;73.85;101939.75;5054545;28;20029;-49
2022/11/24 03:08:57;;;;;;;6.28;3.45;;;;;;;12.08;73.60;101933.41;5054672;28;20479;-46
2022/11/24 03:11:23;;;;;;;6.32;3.85;;;;;;;12.04;73.82;101938.31;5088808;28;20028;-47
2022/11/24 03:13:50;;;;;;;4.65;3.25;;;;;;;12.01;73.88;101943.22;5083884;28;20155;-49
2022/11/24 03:16:16;;;;;;;6.95;3.25;;;;;;;11.94;73.79;101939.63;5054276;28;20028;-49
2022/11/24 03:18:42;;;;;;;4.65;3.30;;;;;;;11.88;73.82;101947.44;5059443;28;20401;-51
2022/11/24 03:21:08;;;;;;;6.78;3.70;;;;;;;11.98;73.92;101928.31;5058837;28;20059;-49
2022/11/24 03:23:35;;;;;;;7.97;4.75;;;;;;;11.95;74.01;101936.78;5053193;28;20111;-48
2022/11/24 03:26:09;;;;;;;7.22;4.50;;;;;;;11.48;76.67;101926.41;5058441;28;20021;-48
2022/11/24 03:28:36;;;;;;;7.25;4.40;;;;;;;11.70;74.13;101936.19;5059387;28;20107;-49
2022/11/24 03:31:02;;;;;;;6.60;4.88;;;;;;;11.57;72.58;101936.88;5060888;28;20033;-50
2022/11/24 03:33:28;;;;;;;8.52;4.30;;;;;;;11.50;72.55;101935.13;5054029;28;20116;-47
2022/11/24 03:35:55;;;;;;;7.97;3.83;;;;;;;11.42;72.28;101924.47;5063850;28;20029;-49
2022/11/24 03:38:21;;;;;;;8.13;4.85;;;;;;;11.37;70.97;101920.50;5053952;28;20033;-48
2022/11/24 03:40:47;;;;;;;7.18;4.50;;;;;;;11.37;69.78;101923.19;5063368;28;20028;-47
2022/11/24 03:43:14;;;;;;;8.52;4.55;;;;;;;11.14;69.57;101935.81;5059416;28;20090;-48
2022/11/24 03:45:40;;;;;;;10.00;6.03;;;;;;;11.12;68.18;101926.31;5072074;28;20105;-47
2022/11/24 03:48:07;;;;;;;7.68;5.22;;;;;;;11.22;67.84;101929.56;5073635;28;20035;-46
2022/11/24 03:50:33;;;;;;;6.00;4.22;;;;;;;10.99;67.78;101918.88;5073421;28;20070;-47
2022/11/24 03:52:59;;;;;;;7.00;3.78;;;;;;;10.95;67.70;101921.13;5066953;28;20017;-50
2022/11/24 03:55:25;;;;;;;6.15;3.60;;;;;;;10.88;67.60;101920.16;5053517;28;20334;-50
2022/11/24 03:57:51;;;;;;;7.35;3.65;;;;;;;10.84;67.52;101924.25;5053769;28;20025;-46
2022/11/24 04:00:17;;;;;;;6.38;3.97;;;;;;;10.94;66.41;101927.50;5053793;28;20033;-46
2022/11/24 04:02:44;;;;;;;5.38;3.85;;;;;;;10.79;67.04;101924.78;5053501;28;20084;-48
2022/11/24 04:05:10;;;;;;;4.28;3.00;;;;;;;10.71;66.87;101926.69;5053232;28;20017;-49
2022/11/24 04:07:36;;;;;;;5.53;3.75;;;;;;;10.62;66.78;101928.59;5053482;28;20092;-50
2022/11/24 04:10:03;;;;;;;4.70;3.78;;;;;;;10.54;66.21;101925.97;5053481;28;20477;-48
2022/11/24 04:12:44;;;;;;;5.15;3.53;;;;;;;10.52;65.89;101930.69;5059405;28;20115;-50
2022/11/24 04:15:15;;;;;;;2.90;2.33;;;;;;;10.47;65.45;101930.38;5050569;28;20243;-46
2022/11/24 04:17:42;;;;;;;3.42;2.78;;;;;;;10.34;65.58;101932.84;5057859;28;20055;-50
2022/11/24 04:20:09;;;;;;;3.13;2.22;;;;;;;10.38;65.49;101928.78;5055982;28;20329;-46
2022/11/24 04:22:36;;;;;;;5.97;3.00;;;;;;;10.36;65.35;101928.97;5058382;28;20039;-51
2022/11/24 04:25:03;;;;;;;9.10;2.25;;;;;;;10.29;65.14;101931.53;5071406;28;20278;-49
2022/11/24 04:27:29;;;;;;;4.43;2.95;;;;;;;10.27;65.10;101932.69;5071034;28;20040;-51
2022/11/24 04:29:55;;;;;;;3.78;2.63;;;;;;;10.21;65.15;101933.38;5054945;28;20025;-49
2022/11/24 04:32:21;;;;;;;6.65;2.90;;;;;;;10.15;65.13;101934.06;5052890;28;20033;-47
2022/11/24 04:34:48;;;;;;;6.03;3.47;;;;;;;10.07;65.13;101934.97;5053199;28;20675;-51
2022/11/24 04:37:14;;;;;;;3.13;2.80;;;;;;;10.10;65.26;101937.28;5052804;28;20021;-51
2022/11/24 04:39:40;;;;;;;5.05;3.50;;;;;;;10.05;65.17;101939.66;5057137;28;20025;-51
2022/11/24 04:42:06;;;;;;;5.47;3.30;;;;;;;9.97;65.39;101940.53;5072770;28;20043;-48
2022/11/24 04:44:33;;;;;;;5.43;2.88;;;;;;;9.93;65.33;101925.00;5072458;28;20028;-52
2022/11/24 04:47:00;;;;;;;4.57;2.15;;;;;;;9.82;65.45;101933.41;5054223;28;20104;-51
2022/11/24 04:49:26;;;;;;;5.70;2.90;;;;;;;9.92;65.26;101931.38;5052562;28;20029;-51
2022/11/24 04:51:52;;;;;;;2.55;2.33;;;;;;;10.05;64.60;101928.97;5052618;28;20028;-50
2022/11/24 04:54:18;;;;;;;3.20;2.30;;;;;;;9.78;65.17;101922.25;5052415;28;20021;-52
2022/11/24 04:56:44;;;;;;;2.40;2.20;;;;;;;10.12;64.54;101937.94;5052098;28;20401;-49
2022/11/24 04:59:14;;;;;;;4.28;2.60;;;;;;;9.97;64.79;101929.00;5052613;28;20028;-51
2022/11/24 05:01:42;;;;;;;5.18;2.80;;;;;;;9.88;64.91;101941.56;5052480;28;20048;-50
2022/11/24 05:04:10;;;;;;;4.25;2.88;;;;;;;9.90;65.02;101931.53;5071620;28;20120;-52
2022/11/24 05:06:37;;;;;;;4.85;3.08;;;;;;;9.78;65.45;101928.44;5052179;28;20029;-51
2022/11/24 05:09:03;;;;;;;4.57;3.13;;;;;;;9.71;65.47;101923.94;5034600;28;20056;-51
2022/11/24 05:11:29;;;;;;;4.82;3.28;;;;;;;9.80;65.11;101922.91;5064276;28;20032;-50
2022/11/24 05:13:55;;;;;;;4.78;3.17;;;;;;;9.71;65.40;101916.75;5072065;28;20017;-50
2022/11/24 05:16:21;;;;;;;6.38;3.20;;;;;;;9.63;65.40;101915.97;5070992;28;20028;-51
2022/11/24 05:18:48;;;;;;;4.75;3.00;;;;;;;9.56;65.20;101923.00;5071607;28;20381;-49
2022/11/24 05:21:14;;;;;;;5.25;3.05;;;;;;;9.49;65.28;101912.16;5051783;28;20557;-49
2022/11/24 05:23:40;;;;;;;6.47;3.60;;;;;;;9.56;64.90;101907.81;5051745;28;20162;-51
2022/11/24 05:26:07;;;;;;;6.18;3.28;;;;;;;9.47;65.52;101912.34;5051387;28;20048;-51
2022/11/24 05:28:33;;;;;;;7.35;3.75;;;;;;;9.32;66.04;101915.88;5051795;28;20036;-49
2022/11/24 05:31:00;;;;;;;4.25;3.25;;;;;;;9.11;67.31;101916.47;5052099;28;20028;-49
2022/11/24 05:33:28;;;;;;;5.18;2.92;;;;;;;9.24;66.87;101911.41;5052057;28;20025;-50
2022/11/24 05:35:59;;;;;;;3.30;2.47;;;;;;;9.33;66.36;101912.22;5052173;28;20028;-48
2022/11/24 05:38:25;;;;;;;4.50;2.78;;;;;;;9.24;66.51;101917.59;5066468;28;20032;-47
2022/11/24 05:40:52;;;;;;;5.68;2.97;;;;;;;9.18;66.34;101915.59;5071316;28;20039;-47
2022/11/24 05:43:18;;;;;;;4.30;3.08;;;;;;;9.20;66.35;101918.09;5071619;28;20063;-50
2022/11/24 05:45:44;;;;;;;5.35;2.90;;;;;;;9.14;66.49;101905.41;5071321;28;20029;-48
2022/11/24 05:48:14;;;;;;;6.60;3.05;;;;;;;9.23;66.55;101907.91;5070017;28;20051;-51
2022/11/24 05:50:41;;;;;;;6.72;2.63;;;;;;;9.37;66.03;101906.34;5059771;28;20025;-49
2022/11/24 05:53:09;;;;;;;4.60;2.78;;;;;;;9.17;66.55;101905.94;5068280;28;20029;-48
2022/11/24 05:55:36;;;;;;;2.80;2.38;;;;;;;9.07;66.74;101905.28;5063393;28;20505;-49
2022/11/24 05:58:05;;;;;;;3.70;2.42;;;;;;;8.89;67.47;101912.66;5071350;28;20051;-50
2022/11/24 06:00:33;;;;;;;3.17;2.67;;;;;;;9.03;67.29;101911.13;5059029;28;20029;-51
2022/11/24 06:03:00;;;;;;;4.40;2.67;;;;;;;9.09;67.22;101916.63;5051211;28;20569;-47
2022/11/24 06:05:28;;;;;;;3.92;2.83;;;;;;;8.86;67.74;101915.66;5051705;28;20041;-50
2022/11/24 06:07:54;;;;;;;2.92;2.33;;;;;;;8.81;67.79;101923.31;5064677;28;20040;-48
2022/11/24 06:10:25;;;;;;;3.72;2.08;;;;;;;8.80;68.20;101919.00;5070694;28;20413;-47
2022/11/24 06:12:52;;;;;;;3.78;2.60;;;;;;;8.81;67.60;101918.00;5055500;28;20074;-47
2022/11/24 06:15:18;;;;;;;3.45;2.22;;;;;;;8.77;67.60;101921.97;5055268;28;20112;-47
2022/11/24 06:17:51;;;;;;;3.13;2.40;;;;;;;8.74;67.51;101920.50;5055395;28;20064;-47
2022/11/24 06:20:17;;;;;;;6.28;2.80;;;;;;;8.73;67.78;101921.50;5055075;28;20048;-46
2022/11/24 06:22:43;;;;;;;6.75;3.17;;;;;;;8.88;67.42;101919.84;5055124;28;20095;-48
2022/11/24 06:25:09;;;;;;;3.60;2.38;;;;;;;8.76;67.57;101915.81;5054935;28;20053;-48
2022/11/24 06:27:36;;;;;;;3.40;2.33;;;;;;;8.68;67.91;101916.66;5055946;28;20035;-47
2022/11/24 06:30:02;;;;;;;3.47;2.10;;;;;;;8.70;67.91;101922.66;5055098;28;20031;-50
2022/11/24 06:32:28;;;;;;;3.15;2.38;;;;;;;8.76;67.46;101925.66;5055058;28;20025;-51
2022/11/24 06:34:55;;;;;;;3.70;2.50;;;;;;;8.60;67.99;101919.31;5055118;28;20449;-50
2022/11/24 06:37:21;;;;;;;4.47;2.50;;;;;;;8.58;67.75;101924.00;5055198;28;20033;-51
2022/11/24 06:39:48;;;;;;;4.93;2.58;;;;;;;8.53;68.13;101931.66;5055166;28;20079;-51
2022/11/24 06:42:17;;;;;;;5.35;2.55;;;;;;;8.49;68.35;101930.31;5054759;28;20029;-50
2022/11/24 06:44:46;;;;;;;4.00;2.50;;;;;;;8.46;68.28;101923.50;5062025;28;20478;-51
2022/11/24 06:47:13;;;;;;;3.35;2.30;;;;;;;8.46;68.37;101931.50;5054705;28;20033;-51
2022/11/24 06:49:40;;;;;;;3.08;2.22;;;;;;;8.46;68.47;101930.66;5054795;28;20108;-50
2022/11/24 06:52:06;;;;;;;3.92;2.20;;;;;;;8.42;68.37;101932.81;5067963;28;20025;-49
2022/11/24 06:54:32;;;;;;;3.30;2.47;;;;;;;8.36;68.25;101936.16;5074397;28;20024;-51
2022/11/24 06:56:59;;;;;;;2.97;2.42;;;;;;;8.36;67.99;101940.66;5074507;28;20127;-47
2022/11/24 06:59:26;;;;;;;6.15;2.50;;;;;;;8.29;68.00;101937.78;5071247;28;20031;-46
2022/11/24 07:01:53;;;;;;;2.53;2.20;;;;;;;8.25;68.13;101935.59;5055593;28;20527;-47
2022/11/24 07:04:19;;;;;;;3.67;2.50;;;;;;;8.32;68.35;101945.44;5054120;28;20045;-46
2022/11/24 07:06:45;;;;;;;3.17;2.20;;;;;;;8.21;68.34;101941.25;5054338;28;20385;-46
2022/11/24 07:09:13;;;;;;;4.35;2.97;;;;;;;8.15;68.46;101941.91;5054443;28;20477;-47
2022/11/24 07:11:40;;;;;;;5.88;3.45;;;;;;;8.06;69.13;101945.56;5054436;28;20029;-48
2022/11/24 07:14:06;;;;;;;3.60;3.13;;;;;;;8.07;69.27;101939.22;5073342;28;20028;-48
2022/11/24 07:16:33;;;;;;;5.05;3.22;;;;;;;8.04;69.52;101942.22;5072646;28;20035;-47
2022/11/24 07:19:00;;;;;;;6.13;3.25;;;;;;;8.06;69.54;101939.41;5057050;28;20021;-46
2022/11/24 07:21:27;;;;;;;5.55;3.58;;;;;;;8.04;69.52;101936.03;5054679;28;20029;-47
2022/11/24 07:23:56;;;;;;;10.13;4.45;;;;;;;7.96;70.35;101944.88;5053905;28;20025;-46
2022/11/24 07:26:23;;;;;;;5.15;3.70;;;;;;;7.92;69.82;101946.19;5071332;28;20056;-47
2022/11/24 07:28:50;;;;;;;4.47;4.00;;;;;;;7.92;69.87;101946.19;5072531;28;20090;-47
2022/11/24 07:31:18;;;;;;;5.35;4.05;;;;;;;7.87;70.08;101946.66;5056570;28;20099;-47
2022/11/24 07:33:53;;;;;;;5.70;4.15;;;;;;;7.87;70.22;101951.16;5054070;28;20508;-47
2022/11/24 07:36:19;;;;;;;6.72;4.25;;;;;;;7.92;69.77;101943.50;5054404;28;20508;-46
2022/11/24 07:38:46;;;;;;;7.65;4.07;;;;;;;7.89;69.83;101941.19;5071299;28;20051;-47
2022/11/24 07:41:14;;;;;;;5.57;4.00;;;;;;;8.16;69.29;101945.41;5074202;28;20127;-46
2022/11/24 07:43:41;;;;;;;7.47;4.20;;;;;;;7.82;70.63;101942.81;5072475;28;20029;-47
2022/11/24 07:46:10;;;;;;;5.88;3.90;;;;;;;7.72;71.30;101947.41;5041224;28;20120;-47
2022/11/24 07:48:36;;;;;;;5.65;4.00;;;;;;;7.87;71.52;101948.50;5053583;28;20021;-49
2022/11/24 07:51:04;;;;;;;6.50;3.90;;;;;;;7.86;71.81;101949.50;5053097;28;20036;-48
2022/11/24 07:53:32;;;;;;;4.63;3.70;;;;;;;7.83;71.90;101944.50;5053533;28;20021;-46
2022/11/24 07:56:00;;;;;;;5.53;4.18;;;;;;;7.75;71.69;101941.78;5063370;28;20032;-49
2022/11/24 07:58:28;;;;;;;4.43;3.50;;;;;;;7.57;72.24;101940.03;5059494;28;20040;-48
2022/11/24 08:00:55;;;;;;;5.70;3.72;;;;;;;7.65;71.77;101934.75;5053264;28;20029;-49
2022/11/24 08:03:22;;;;;;;4.50;3.65;;;;;;;7.67;71.14;101935.44;5055520;28;20041;-46
2022/11/24 08:05:59;;;;;;;6.95;3.28;;;;;;;7.60;71.90;101944.19;5073159;28;20033;-49
2022/11/24 08:08:25;;;;;;;4.40;3.00;;;;;;;7.59;72.02;101942.53;5073200;28;20027;-48
2022/11/24 08:10:52;;;;;;;5.18;2.97;;;;;;;7.94;71.46;101934.38;5055960;28;20035;-50
2022/11/24 08:13:18;;;;;;;4.43;2.67;;;;;;;7.77;71.59;101940.63;5053121;28;20066;-47
2022/11/24 08:15:45;;;;;;;3.75;2.78;;;;;;;7.80;71.49;101936.81;5052848;28;20052;-50
2022/11/24 08:18:11;;;;;;;5.00;2.67;;;;;;;7.72;71.31;101942.09;5053053;28;20029;-48
2022/11/24 08:20:37;;;;;;;4.13;2.58;;;;;;;7.75;71.03;101931.13;5063497;28;20033;-46
2022/11/24 08:23:04;;;;;;;4.07;3.10;;;;;;;7.81;70.71;101925.97;5072944;28;20024;-49
2022/11/24 08:25:31;;;;;;;3.55;2.88;;;;;;;8.15;69.10;101933.06;5072661;28;20060;-48
2022/11/24 08:27:59;;;;;;;4.90;3.22;;;;;;;8.23;68.27;101935.78;5054813;28;20029;-50
2022/11/24 08:30:25;;;;;;;3.83;2.63;;;;;;;7.93;69.06;101935.34;5052792;28;20025;-48
2022/11/24 08:32:51;;;;;;;4.63;3.15;;;;;;;8.07;68.52;101939.22;5052468;28;20442;-46
2022/11/24 08:35:18;;;;;;;4.15;2.78;;;;;;;7.91;68.49;101936.50;5052390;28;20120;-48
2022/11/24 08:37:44;;;;;;;4.35;2.97;;;;;;;7.86;68.47;101928.16;5052903;28;20090;-48
2022/11/24 08:40:11;;;;;;;7.15;3.75;;;;;;;7.96;68.16;101931.53;5034796;28;20021;-49
2022/11/24 08:42:37;;;;;;;4.40;2.50;;;;;;;7.79;67.96;101932.47;5052794;28;20021;-46
2022/11/24 08:45:04;;;;;;;3.70;2.80;;;;;;;7.91;65.88;101942.69;5052959;28;20035;-47
2022/11/24 08:47:30;;;;;;;3.38;2.63;;;;;;;8.11;65.02;101942.41;5052647;28;20021;-51
2022/11/24 08:49:56;;;;;;;4.28;2.95;;;;;;;8.16;65.61;101945.41;5067826;28;20032;-50
2022/11/24 08:52:23;;;;;;;6.85;3.33;;;;;;;8.17;65.64;101942.59;5058696;22;20401;-47
2022/11/24 08:54:49;;;;;;;11.98;3.55;;;;;;;8.29;64.98;101935.13;4977172;28;20037;-51
2022/11/24 08:57:15;;;;;;;6.88;3.58;;;;;;;8.50;64.15;101940.03;5001524;28;20021;-48
2022/11/24 08:59:41;;;;;;;9.30;3.83;;;;;;;8.48;65.06;101936.66;5012600;28;20056;-46
2022/11/24 09:02:11;;;;;;;4.35;3.10;;;;;;;8.72;62.67;101933.19;5012614;28;20494;-46
2022/11/24 09:04:38;;;;;;;5.30;3.25;;;;;;;9.02;60.07;101931.66;5012274;28;20030;-50
2022/11/24 09:07:04;;;;;;;8.82;4.97;;;;;;;9.31;69.67;101930.25;5012898;28;20053;-49
2022/11/24 09:09:31;;;;;;;6.38;4.57;;;;;;;9.19;70.89;101933.28;5012377;28;20087;-51
2022/11/24 09:11:57;;;;;;;8.18;4.90;;;;;;;9.13;71.05;101933.97;5012588;28;20022;-50
2022/11/24 09:14:23;;;;;;;9.20;5.00;;;;;;;9.23;69.48;101929.28;5012265;28;20034;-51
2022/11/24 09:16:49;;;;;;;7.90;4.22;;;;;;;9.36;67.66;101926.06;4993655;28;20056;-51
2022/11/24 09:19:15;;;;;;;8.85;4.95;;;;;;;9.22;71.13;101927.63;5012265;28;20473;-47
2022/11/24 09:21:42;;;;;;;5.35;4.30;;;;;;;9.38;70.00;101933.91;5012194;28;20026;-51
2022/11/24 09:24:09;;;;;;;7.82;4.38;;;;;;;9.41;66.32;101934.41;5012110;28;20471;-51
2022/11/24 09:26:37;;;;;;;5.63;3.90;;;;;;;9.46;63.93;101939.25;5012286;28;20030;-51
2022/11/24 09:29:06;;;;;;;7.32;3.88;;;;;;;9.55;64.14;101943.56;5012428;28;20026;-48
2022/11/24 09:31:35;;;;;;;5.03;3.40;;;;;;;9.41;63.62;101941.59;5012134;28;20030;-51
2022/11/24 09:34:03;;;;;;;4.80;2.70;;;;;;;9.24;60.30;101941.63;5011734;28;20025;-51
2022/11/24 09:36:30;;;;;;;4.30;3.03;;;;;;;9.21;60.35;101935.78;5012247;28;20137;-50
2022/11/24 09:38:57;;;;;;;5.90;2.40;;;;;;;9.41;55.61;101930.91;5012095;28;20434;-51
2022/11/24 09:41:37;;;;;;;2.80;1.92;;;;;;;9.36;51.48;101918.06;5012168;28;20033;-51
2022/11/24 09:44:18;;;;;;;3.72;1.80;;;;;;;9.63;48.29;101924.81;5011023;28;20398;-47
2022/11/24 09:47:09;;;;;;;2.80;1.90;;;;;;;9.73;48.07;101924.63;4992123;28;20410;-50
2022/11/24 09:49:35;;;;;;;2.60;1.70;;;;;;;9.98;46.65;101930.66;4992273;28;20081;-48
2022/11/24 09:52:07;;;;;;;2.50;1.75;;;;;;;10.13;47.08;101936.94;4992370;28;20619;-46
2022/11/24 09:54:36;;;;;;;2.40;1.90;;;;;;;10.14;48.32;101932.41;4991847;28;20054;-47
2022/11/24 09:57:05;;;;;;;5.30;1.90;;;;;;;10.20;46.82;101935.22;4992122;28;20026;-48
2022/11/24 09:59:32;;;;;;;6.28;1.65;;;;;;;10.27;46.28;101936.22;4992248;28;20105;-48
2022/11/24 10:01:59;;;;;;;2.83;2.08;;;;;;;10.19;47.54;101941.59;4992236;28;20042;-46
2022/11/24 10:04:33;;;;;;;3.17;2.15;;;;;;;10.26;48.04;101947.91;4975044;28;20094;-47
2022/11/24 10:07:20;;;;;;;4.03;2.20;;;;;;;10.09;50.27;101949.00;4972585;28;20030;-47
2022/11/24 10:10:03;;;;;;;3.08;2.00;;;;;;;10.17;51.89;101957.00;4972598;28;20472;-47
2022/11/24 10:12:49;;;;;;;5.00;3.03;;;;;;;10.18;53.08;101955.97;4972665;28;20023;-48
2022/11/24 10:15:26;;;;;;;4.03;3.05;;;;;;;10.08;52.99;101955.34;4972500;28;20019;-49
2022/11/24 10:18:13;;;;;;;5.60;3.22;;;;;;;9.83;53.67;101954.66;4972977;28;20109;-46
2022/11/24 10:20:51;;;;;;;3.50;2.55;;;;;;;9.71;54.30;101959.53;4972573;28;20019;-47
2022/11/24 10:23:42;;;;;;;3.47;2.42;;;;;;;9.55;53.96;101962.28;4972533;28;20034;-45
2022/11/24 10:26:36;;;;;;;3.53;2.83;;;;;;;9.36;55.13;101960.81;4972646;28;20081;-48
2022/11/24 10:29:28;;;;;;;3.97;2.55;;;;;;;9.32;53.33;101958.63;4972696;28;20070;-46
2022/11/24 10:31:56;;;;;;;4.68;2.35;;;;;;;9.32;52.42;101970.16;4927814;28;20506;-49
2022/11/24 10:34:26;;;;;;;3.25;2.25;;;;;;;9.44;50.54;101962.66;4972089;28;20395;-48
2022/11/24 10:37:11;;;;;;;5.18;2.13;;;;;;;9.69;50.32;101963.38;4955153;28;20022;-49
2022/11/24 10:39:52;;;;;;;3.90;2.13;;;;;;;9.84;48.56;101964.34;4972513;28;20483;-47
2022/11/24 10:42:27;;;;;;;2.38;1.92;;;;;;;9.81;49.01;101958.50;4972518;28;20035;-49
2022/11/24 10:44:59;;;;;;;;;;;;;;;9.95;49.48;101966.63;4972499;28;20395;-48
2022/11/24 10:47:26;;;;;;;2.72;2.28;;;;;;;10.06;48.69;101978.78;4972272;28;19915;-50
2022/11/24 10:50:10;;;;;;;2.97;2.28;;;;;;;9.99;49.62;101969.78;4972214;28;20033;-47
2022/11/24 10:52:42;;;;;;;3.08;2.20;;;;;;;9.85;50.08;101970.53;4989091;28;20047;-46
2022/11/24 10:55:09;;;;;;;3.92;2.33;;;;;;;9.75;51.55;101976.88;4992749;28;20026;-46
2022/11/24 10:57:37;;;;;;;4.25;2.78;;;;;;;9.80;51.20;101979.06;4995191;28;20109;-49
2022/11/24 11:00:23;;;;;;;5.60;3.03;;;;;;;9.65;52.53;101975.41;4995374;28;20073;-45
2022/11/24 11:03:14;;;;;;;5.60;3.00;;;;;;;9.50;51.58;101973.47;4995167;28;20061;-46
2022/11/24 11:06:03;;;;;;;4.22;2.45;;;;;;;9.45;52.05;101975.00;4994829;28;20041;-50
2022/11/24 11:08:31;;;;;;;4.55;2.97;;;;;;;9.39;51.65;101965.00;4994125;28;20033;-50
2022/11/24 11:11:21;;;;;;;3.63;2.10;;;;;;;9.36;50.36;101965.31;4995248;28;20027;-47
2022/11/24 11:13:51;;;;;;;2.90;2.03;;;;;;;9.48;47.95;101975.47;4994739;28;20462;-46
2022/11/24 11:16:51;;;;;;;2.80;2.20;;;;;;;9.69;48.89;101966.06;4994944;28;20022;-50
2022/11/24 11:19:38;;;;;;;4.97;2.20;;;;;;;9.91;46.42;101967.16;4980771;28;20525;-48
2022/11/24 11:22:10;;;;;;;4.82;2.42;;;;;;;10.23;44.79;101964.34;4995294;28;20038;-48
2022/11/24 11:24:41;;;;;;;4.00;2.05;;;;;;;10.61;42.61;101956.41;4994560;28;20104;-47
2022/11/24 11:27:23;;;;;;;4.88;2.60;;;;;;;10.94;42.65;101958.78;4994681;28;20026;-47
2022/11/24 11:29:50;;;;;;;5.00;2.25;;;;;;;11.15;40.75;101950.06;4994732;28;20019;-48
2022/11/24 11:32:18;;;;;;;5.38;2.25;;;;;;;11.20;40.22;101950.34;4994878;28;20026;-50
2022/11/24 11:34:45;;;;;;;3.95;2.20;;;;;;;11.51;39.37;101947.50;4994476;28;20059;-49
2022/11/24 11:37:13;;;;;;;4.93;2.17;;;;;;;11.86;37.33;101945.94;4994517;28;20433;-46